createdAt,value
2018-10-17T00:01:37.307Z,29.30
2018-10-17T00:04:07.654Z,25.25
2018-10-17T00:06:35.085Z,25.88
2018-10-17T00:09:02.593Z,25.17
2018-10-17T00:11:30.093Z,25.48
2018-10-17T00:13:57.509Z,26.90
2018-10-17T00:16:24.942Z,26.90
2018-10-17T00:18:52.352Z,25.35
2018-10-17T00:21:19.692Z,25.20
2018-10-17T00:23:47.213Z,28.85
2018-10-17T00:26:14.586Z,23.65
2018-10-17T00:28:41.978Z,23.98
2018-10-17T00:31:09.501Z,25.02
2018-10-17T00:33:36.916Z,25.70
2018-10-17T00:36:04.386Z,27.90
2018-10-17T00:38:31.832Z,25.52
2018-10-17T00:40:59.260Z,23.52
2018-10-17T00:43:26.760Z,24.52
2018-10-17T00:45:54.174Z,24.32
2018-10-17T00:48:21.570Z,25.55
2018-10-17T00:50:48.948Z,24.10
2018-10-17T00:53:16.443Z,24.65
2018-10-17T00:55:43.755Z,24.25
2018-10-17T00:58:11.205Z,24.75
2018-10-17T01:00:38.664Z,27.45
2018-10-17T01:03:06.107Z,27.10
2018-10-17T01:05:34.173Z,25.52
2018-10-17T01:08:01.879Z,24.65
2018-10-17T01:10:29.253Z,26.20
2018-10-17T01:12:56.932Z,25.12
2018-10-17T01:15:24.269Z,30.43
2018-10-17T01:17:51.631Z,26.80
2018-10-17T01:20:19.033Z,26.10
2018-10-17T01:22:46.519Z,27.02
2018-10-17T01:25:14.061Z,24.85
2018-10-17T01:27:41.451Z,26.17
2018-10-17T01:30:08.885Z,23.55
2018-10-17T01:32:36.370Z,23.65
2018-10-17T01:35:03.942Z,24.90
2018-10-17T01:37:31.285Z,23.05
2018-10-17T01:39:58.725Z,25.25
2018-10-17T01:42:26.123Z,24.87
2018-10-17T01:44:53.561Z,24.95
2018-10-17T01:47:21.055Z,24.85
2018-10-17T01:49:48.490Z,25.55
2018-10-17T01:52:16.009Z,25.77
2018-10-17T01:54:43.401Z,24.43
2018-10-17T01:57:10.999Z,26.17
2018-10-17T01:59:38.385Z,24.18
2018-10-17T02:02:06.019Z,25.45
2018-10-17T02:04:33.515Z,25.52
2018-10-17T02:07:00.922Z,23.70
2018-10-17T02:09:28.341Z,24.85
2018-10-17T02:11:55.753Z,25.05
2018-10-17T02:14:23.169Z,25.27
2018-10-17T02:16:50.667Z,24.77
2018-10-17T02:19:18.129Z,25.32
2018-10-17T02:21:45.525Z,23.67
2018-10-17T02:24:12.903Z,24.80
2018-10-17T02:26:40.299Z,24.12
2018-10-17T02:29:07.714Z,25.30
2018-10-17T02:31:39.103Z,24.50
2018-10-17T02:34:06.502Z,26.23
2018-10-17T02:36:33.914Z,26.95
2018-10-17T02:39:01.440Z,28.17
2018-10-17T02:41:28.935Z,28.17
2018-10-17T02:43:56.314Z,26.68
2018-10-17T02:46:23.833Z,25.68
2018-10-17T02:48:51.297Z,25.75
2018-10-17T02:51:18.726Z,26.02
2018-10-17T02:53:46.214Z,31.27
2018-10-17T02:56:13.710Z,24.63
2018-10-17T02:58:41.101Z,29.32
2018-10-17T03:01:08.572Z,29.50
2018-10-17T03:03:36.004Z,31.23
2018-10-17T03:06:03.443Z,32.85
2018-10-17T03:08:30.967Z,34.15
2018-10-17T03:10:58.387Z,35.50
2018-10-17T03:13:26.274Z,35.52
2018-10-17T03:15:53.724Z,33.45
2018-10-17T03:18:21.200Z,36.00
2018-10-17T03:20:48.665Z,32.25
2018-10-17T03:23:16.177Z,35.75
2018-10-17T03:25:43.590Z,37.30
2018-10-17T03:28:11.074Z,36.33
2018-10-17T03:30:38.512Z,37.20
2018-10-17T03:33:06.088Z,33.63
2018-10-17T03:35:33.570Z,34.48
2018-10-17T03:38:01.029Z,33.42
2018-10-17T03:40:28.445Z,33.55
2018-10-17T03:42:55.948Z,33.88
2018-10-17T03:45:23.695Z,33.98
2018-10-17T03:47:51.121Z,33.80
2018-10-17T03:50:18.597Z,32.33
2018-10-17T03:52:46.000Z,33.25
2018-10-17T03:55:13.570Z,30.50
2018-10-17T03:57:41.254Z,32.17
2018-10-17T04:00:08.970Z,30.68
2018-10-17T04:02:36.845Z,31.25
2018-10-17T04:05:04.517Z,31.12
2018-10-17T04:07:31.881Z,31.85
2018-10-17T04:09:59.371Z,29.92
2018-10-17T04:12:26.773Z,29.85
2018-10-17T04:14:54.165Z,26.80
2018-10-17T04:17:21.538Z,27.73
2018-10-17T04:19:48.977Z,28.17
2018-10-17T04:22:16.402Z,24.80
2018-10-17T04:24:43.749Z,29.55
2018-10-17T04:27:11.143Z,27.17
2018-10-17T04:29:38.683Z,27.77
2018-10-17T04:32:06.176Z,28.17
2018-10-17T04:34:33.571Z,25.10
2018-10-17T04:37:01.049Z,29.23
2018-10-17T04:39:28.505Z,26.68
2018-10-17T04:41:55.977Z,26.90
2018-10-17T04:44:23.443Z,25.90
2018-10-17T04:46:50.991Z,25.20
2018-10-17T04:49:18.442Z,26.75
2018-10-17T04:51:45.847Z,28.27
2018-10-17T04:54:13.207Z,27.05
2018-10-17T04:56:40.699Z,25.55
2018-10-17T04:59:08.132Z,26.17
2018-10-17T05:01:35.579Z,29.90
2018-10-17T05:04:03.122Z,29.87
2018-10-17T05:06:30.571Z,28.05
2018-10-17T05:08:58.058Z,28.05
2018-10-17T05:11:25.441Z,27.00
2018-10-17T05:13:53.412Z,28.15
2018-10-17T05:16:20.960Z,29.07
2018-10-17T05:18:48.428Z,29.10
2018-10-17T05:21:15.875Z,28.05
2018-10-17T05:23:43.472Z,29.02
2018-10-17T05:26:10.912Z,29.12
2018-10-17T05:28:39.272Z,30.70
2018-10-17T05:31:06.819Z,28.27
2018-10-17T05:33:34.832Z,27.82
2018-10-17T05:36:02.216Z,29.57
2018-10-17T05:38:29.642Z,30.02
2018-10-17T05:40:57.091Z,29.72
2018-10-17T05:43:24.512Z,30.08
2018-10-17T05:45:52.014Z,28.83
2018-10-17T05:48:19.448Z,30.43
2018-10-17T05:50:46.942Z,27.50
2018-10-17T05:53:14.410Z,27.50
2018-10-17T05:55:41.816Z,28.40
2018-10-17T05:58:09.504Z,29.80
2018-10-17T06:00:37.369Z,26.85
2018-10-17T06:03:05.201Z,27.65
2018-10-17T06:05:32.724Z,27.82
2018-10-17T06:08:00.272Z,27.73
2018-10-17T06:10:27.852Z,28.47
2018-10-17T06:12:55.198Z,25.55
2018-10-17T06:15:22.643Z,25.75
2018-10-17T06:17:50.140Z,26.90
2018-10-17T06:20:17.697Z,24.35
2018-10-17T06:22:45.400Z,26.37
2018-10-17T06:25:12.992Z,25.50
2018-10-17T06:27:40.738Z,23.55
2018-10-17T06:30:08.855Z,23.52
2018-10-17T06:32:36.391Z,23.70
2018-10-17T06:35:04.068Z,24.60
2018-10-17T06:37:31.677Z,25.02
2018-10-17T06:39:59.201Z,25.23
2018-10-17T06:42:26.788Z,24.40
2018-10-17T06:44:54.352Z,24.63
2018-10-17T06:47:21.965Z,23.92
2018-10-17T06:49:49.371Z,25.75
2018-10-17T06:52:16.913Z,24.77
2018-10-17T06:54:44.479Z,24.98
2018-10-17T06:57:12.059Z,23.95
2018-10-17T06:59:39.754Z,24.77
2018-10-17T07:02:07.194Z,24.07
2018-10-17T07:04:34.715Z,24.10
2018-10-17T07:07:02.305Z,24.87
2018-10-17T07:09:29.732Z,22.98
2018-10-17T07:11:57.191Z,26.15
2018-10-17T07:14:24.741Z,23.32
2018-10-17T07:16:52.350Z,28.20
2018-10-17T07:19:19.929Z,23.98
2018-10-17T07:21:47.474Z,24.47
2018-10-17T07:24:14.976Z,26.30
2018-10-17T07:26:42.489Z,26.10
2018-10-17T07:29:09.974Z,25.50
2018-10-17T07:31:38.502Z,26.52
2018-10-17T07:34:06.090Z,26.35
2018-10-17T07:36:33.652Z,25.92
2018-10-17T07:39:01.140Z,25.20
2018-10-17T07:41:28.584Z,26.97
2018-10-17T07:43:56.077Z,25.85
2018-10-17T07:46:23.647Z,27.30
2018-10-17T07:48:51.082Z,27.00
2018-10-17T07:51:18.616Z,26.10
2018-10-17T07:53:46.090Z,27.00
2018-10-17T07:56:13.635Z,26.80
2018-10-17T07:58:41.150Z,23.70
2018-10-17T08:01:08.588Z,26.10
2018-10-17T08:03:36.103Z,24.13
2018-10-17T08:06:03.601Z,24.00
2018-10-17T08:08:31.171Z,23.80
2018-10-17T08:10:58.615Z,25.07
2018-10-17T08:13:26.219Z,26.87
2018-10-17T08:15:53.673Z,25.30
2018-10-17T08:18:21.237Z,25.00
2018-10-17T08:20:48.645Z,26.17
2018-10-17T08:23:16.115Z,24.60
2018-10-17T08:25:43.555Z,23.67
2018-10-17T08:28:11.105Z,22.70
2018-10-17T08:30:38.549Z,23.80
2018-10-17T08:33:06.211Z,23.90
2018-10-17T08:35:34.311Z,23.50
2018-10-17T08:38:01.748Z,22.27
2018-10-17T08:40:29.165Z,21.77
2018-10-17T08:42:56.612Z,22.13
2018-10-17T08:45:24.065Z,21.27
2018-10-17T08:47:51.564Z,20.40
2018-10-17T08:50:19.139Z,20.80
2018-10-17T08:52:46.380Z,20.70
2018-10-17T08:55:13.800Z,19.87
2018-10-17T08:57:41.243Z,20.13
2018-10-17T09:00:08.685Z,19.20
2018-10-17T09:02:36.109Z,17.73
2018-10-17T09:05:04.513Z,18.97
2018-10-17T09:07:31.983Z,17.73
2018-10-17T09:09:59.381Z,17.70
2018-10-17T09:12:26.857Z,19.47
2018-10-17T09:14:54.270Z,19.10
2018-10-17T09:17:21.651Z,17.20
2018-10-17T09:19:49.248Z,17.17
2018-10-17T09:22:16.974Z,15.90
2018-10-17T09:24:44.243Z,15.47
2018-10-17T09:27:11.602Z,17.63
2018-10-17T09:29:39.009Z,17.17
2018-10-17T09:32:06.529Z,15.97
2018-10-17T09:34:33.923Z,15.77
2018-10-17T09:37:01.346Z,17.63
2018-10-17T09:39:28.741Z,15.40
2018-10-17T09:41:56.175Z,14.90
2018-10-17T09:44:23.634Z,14.37
2018-10-17T09:46:51.043Z,16.13
2018-10-17T09:49:18.483Z,14.10
2018-10-17T09:51:45.952Z,14.40
2018-10-17T09:54:13.442Z,15.20
2018-10-17T09:56:40.776Z,14.07
2018-10-17T09:59:08.159Z,14.23
2018-10-17T10:01:40.847Z,15.67
2018-10-17T10:04:08.379Z,15.30
2018-10-17T10:06:35.802Z,13.67
2018-10-17T10:09:03.483Z,14.20
2018-10-17T10:11:30.913Z,13.13
2018-10-17T10:13:58.332Z,14.77
2018-10-17T10:16:25.857Z,14.27
2018-10-17T10:18:53.264Z,12.50
2018-10-17T10:21:20.712Z,13.80
2018-10-17T10:23:49.133Z,12.67
2018-10-17T10:26:16.609Z,12.93
2018-10-17T10:28:44.089Z,12.00
2018-10-17T10:31:12.418Z,13.57
2018-10-17T10:33:39.799Z,13.00
2018-10-17T10:36:07.188Z,11.57
2018-10-17T10:38:34.886Z,11.77
2018-10-17T10:41:02.541Z,12.80
2018-10-17T10:43:29.954Z,13.83
2018-10-17T10:45:57.350Z,11.80
2018-10-17T10:48:24.766Z,13.17
2018-10-17T10:50:52.236Z,13.60
2018-10-17T10:53:20.497Z,12.90
2018-10-17T10:55:48.000Z,15.50
2018-10-17T10:58:15.550Z,13.07
2018-10-17T11:00:43.032Z,13.13
2018-10-17T11:03:10.636Z,12.70
2018-10-17T11:05:38.591Z,12.57
2018-10-17T11:08:05.937Z,13.40
2018-10-17T11:10:33.396Z,13.47
2018-10-17T11:13:01.912Z,14.17
2018-10-17T11:15:29.539Z,13.53
2018-10-17T11:17:58.204Z,12.97
2018-10-17T11:20:25.793Z,13.23
2018-10-17T11:22:53.338Z,12.97
2018-10-17T11:25:21.520Z,14.80
2018-10-17T11:27:49.378Z,13.43
2018-10-17T11:30:16.974Z,15.00
2018-10-17T11:32:44.713Z,14.20
2018-10-17T11:35:13.298Z,14.43
2018-10-17T11:37:41.047Z,14.47
2018-10-17T11:40:08.744Z,15.03
2018-10-17T11:42:36.339Z,13.87
2018-10-17T11:45:04.283Z,13.77
2018-10-17T11:47:31.902Z,14.87
2018-10-17T11:49:59.824Z,13.73
2018-10-17T11:52:27.523Z,18.20
2018-10-17T11:54:55.289Z,20.77
2018-10-17T11:57:22.840Z,22.53
2018-10-17T11:59:50.589Z,24.90
2018-10-17T12:02:18.718Z,23.70
2018-10-17T12:04:47.192Z,24.80
2018-10-17T12:07:14.395Z,24.73
2018-10-17T12:09:42.039Z,23.43
2018-10-17T12:12:10.136Z,20.47
2018-10-17T12:14:37.891Z,22.47
2018-10-17T12:17:05.443Z,21.90
2018-10-17T12:19:32.955Z,20.50
2018-10-17T12:22:00.624Z,25.17
2018-10-17T12:24:28.113Z,25.80
2018-10-17T12:26:55.584Z,23.50
2018-10-17T12:29:23.004Z,21.30
2018-10-17T12:31:50.507Z,21.30
2018-10-17T12:34:17.932Z,20.33
2018-10-17T12:36:45.383Z,21.60
2018-10-17T12:39:13.660Z,19.57
2018-10-17T12:41:41.397Z,19.77
2018-10-17T12:44:08.856Z,19.70
2018-10-17T12:46:36.399Z,20.30
2018-10-17T12:49:03.893Z,23.90
2018-10-17T12:51:31.413Z,24.47
2018-10-17T12:53:58.859Z,22.23
2018-10-17T12:56:26.401Z,24.50
2018-10-17T12:58:53.840Z,24.57
2018-10-17T13:01:21.413Z,23.67
2018-10-17T13:03:49.073Z,25.53
2018-10-17T13:06:16.526Z,23.57
2018-10-17T13:08:44.053Z,26.80
2018-10-17T13:11:11.735Z,26.30
2018-10-17T13:13:39.131Z,24.60
2018-10-17T13:16:06.740Z,24.63
2018-10-17T13:18:34.314Z,23.90
2018-10-17T13:21:01.910Z,24.40
2018-10-17T13:23:29.399Z,23.23
2018-10-17T13:25:57.950Z,21.43
2018-10-17T13:28:25.660Z,20.53
2018-10-17T13:30:53.168Z,22.50
2018-10-17T13:33:20.585Z,20.00
2018-10-17T13:35:49.102Z,19.70
2018-10-17T13:38:16.740Z,18.83
2018-10-17T13:40:44.193Z,16.60
2018-10-17T13:43:12.235Z,15.80
2018-10-17T13:45:39.626Z,14.70
2018-10-17T13:48:07.043Z,14.63
2018-10-17T13:50:35.322Z,15.30
2018-10-17T13:53:02.727Z,14.30
2018-10-17T13:55:30.154Z,14.97
2018-10-17T13:57:57.773Z,15.47
2018-10-17T14:00:25.195Z,15.37
2018-10-17T14:02:52.630Z,13.90
2018-10-17T14:05:20.082Z,13.80
2018-10-17T14:07:47.456Z,13.50
2018-10-17T14:10:14.786Z,13.10
2018-10-17T14:12:42.090Z,12.60
2018-10-17T14:15:10.362Z,13.03
2018-10-17T14:17:37.796Z,12.47
2018-10-17T14:20:05.302Z,13.43
2018-10-17T14:22:32.752Z,12.60
2018-10-17T14:25:00.208Z,13.73
2018-10-17T14:27:27.876Z,12.40
2018-10-17T14:29:55.353Z,13.60
2018-10-17T14:32:23.348Z,13.90
2018-10-17T14:34:51.478Z,12.37
2018-10-17T14:37:18.886Z,13.07
2018-10-17T14:39:46.258Z,12.83
2018-10-17T14:42:13.848Z,13.43
2018-10-17T14:44:41.172Z,13.47
2018-10-17T14:47:08.522Z,14.13
2018-10-17T14:49:35.877Z,14.23
2018-10-17T14:52:03.580Z,14.30
2018-10-17T14:54:30.990Z,13.60
2018-10-17T14:56:58.583Z,15.27
2018-10-17T14:59:25.940Z,13.83
2018-10-17T15:01:53.629Z,14.77
2018-10-17T15:04:21.007Z,14.80
2018-10-17T15:06:48.465Z,14.80
2018-10-17T15:09:16.961Z,15.57
2018-10-17T15:11:44.441Z,12.80
2018-10-17T15:14:11.999Z,14.83
2018-10-17T15:16:39.458Z,15.83
2018-10-17T15:19:06.913Z,16.00
2018-10-17T15:21:34.245Z,20.83
2018-10-17T15:24:01.735Z,19.70
2018-10-17T15:26:29.205Z,18.50
2018-10-17T15:28:56.659Z,18.90
2018-10-17T15:31:24.216Z,18.73
2018-10-17T15:33:51.655Z,18.30
2018-10-17T15:36:19.049Z,16.90
2018-10-17T15:38:46.456Z,17.40
2018-10-17T15:41:13.924Z,16.53
2018-10-17T15:43:41.450Z,17.07
2018-10-17T15:46:08.872Z,16.20
2018-10-17T15:48:36.428Z,16.47
2018-10-17T15:51:03.923Z,16.87
2018-10-17T15:53:31.365Z,16.23
2018-10-17T15:55:58.992Z,16.90
2018-10-17T15:58:26.492Z,16.20
2018-10-17T16:00:54.000Z,16.10
2018-10-17T16:03:21.359Z,14.30
2018-10-17T16:05:48.796Z,14.70
2018-10-17T16:08:16.149Z,14.73
2018-10-17T16:10:45.106Z,15.03
2018-10-17T16:13:12.610Z,15.33
2018-10-17T16:15:40.976Z,15.50
2018-10-17T16:18:09.875Z,14.97
2018-10-17T16:20:37.312Z,15.83
2018-10-17T16:23:04.973Z,16.47
2018-10-17T16:25:32.617Z,16.37
2018-10-17T16:27:59.998Z,18.63
2018-10-17T16:30:27.761Z,18.43
2018-10-17T16:32:55.520Z,19.77
2018-10-17T16:35:22.966Z,19.73
2018-10-17T16:37:50.539Z,20.50
2018-10-17T16:40:18.006Z,19.80
2018-10-17T16:42:45.441Z,20.10
2018-10-17T16:45:13.441Z,20.60
2018-10-17T16:47:40.962Z,21.70
2018-10-17T16:50:09.000Z,21.57
2018-10-17T16:52:36.601Z,21.07
2018-10-17T16:55:04.667Z,20.67
2018-10-17T16:57:32.102Z,21.93
2018-10-17T16:59:59.546Z,21.30
2018-10-17T17:02:26.925Z,23.20
2018-10-17T17:04:54.438Z,24.27
2018-10-17T17:07:22.499Z,25.52
2018-10-17T17:09:49.813Z,25.67
2018-10-17T17:12:17.248Z,24.57
2018-10-17T17:14:45.609Z,26.42
2018-10-17T17:17:12.934Z,25.37
2018-10-17T17:19:40.361Z,22.60
2018-10-17T17:22:07.851Z,22.25
2018-10-17T17:24:36.029Z,22.80
2018-10-17T17:27:03.972Z,23.98
2018-10-17T17:29:31.485Z,24.92
2018-10-17T17:31:58.935Z,23.80
2018-10-17T17:34:26.732Z,25.95
2018-10-17T17:36:54.192Z,25.72
2018-10-17T17:39:21.649Z,24.45
2018-10-17T17:41:49.244Z,23.20
2018-10-17T17:44:16.767Z,21.80
2018-10-17T17:46:44.255Z,23.22
2018-10-17T17:49:11.965Z,22.30
2018-10-17T17:51:39.485Z,21.70
2018-10-17T17:54:07.170Z,22.00
2018-10-17T17:56:34.584Z,23.98
2018-10-17T17:59:02.832Z,23.00
2018-10-17T18:01:31.009Z,22.13
2018-10-17T18:03:58.524Z,23.02
2018-10-17T18:06:25.995Z,21.65
2018-10-17T18:08:54.173Z,24.82
2018-10-17T18:11:22.696Z,23.02
2018-10-17T18:13:50.908Z,23.45
2018-10-17T18:16:18.452Z,24.60
2018-10-17T18:18:46.047Z,23.32
2018-10-17T18:21:13.656Z,23.80
2018-10-17T18:23:41.425Z,22.98
2018-10-17T18:26:09.046Z,24.30
2018-10-17T18:28:37.248Z,23.18
2018-10-17T18:31:04.782Z,24.05
2018-10-17T18:33:32.512Z,25.23
2018-10-17T18:36:01.585Z,25.68
2018-10-17T18:38:29.404Z,24.63
2018-10-17T18:40:57.252Z,25.88
2018-10-17T18:43:24.976Z,26.15
2018-10-17T18:45:52.648Z,26.55
2018-10-17T18:48:20.444Z,27.77
2018-10-17T18:50:48.220Z,28.92
2018-10-17T18:53:15.931Z,30.57
2018-10-17T18:55:43.594Z,27.80
2018-10-17T18:58:11.223Z,29.27
2018-10-17T19:00:38.848Z,31.42
2018-10-17T19:03:07.613Z,32.60
2018-10-17T19:05:35.532Z,31.57
2018-10-17T19:08:04.423Z,30.05
2018-10-17T19:10:32.118Z,36.48
2018-10-17T19:12:59.710Z,33.70
2018-10-17T19:15:27.393Z,34.18
2018-10-17T19:17:59.402Z,31.93
2018-10-17T19:20:27.198Z,32.05
2018-10-17T19:22:56.182Z,32.10
2018-10-17T19:25:24.460Z,34.75
2018-10-17T19:27:53.451Z,31.42
2018-10-17T19:30:23.060Z,28.57
2018-10-17T19:32:54.299Z,33.10
2018-10-17T19:35:22.938Z,31.00
2018-10-17T19:37:54.035Z,30.95
2018-10-17T19:40:21.739Z,29.40
2018-10-17T19:42:49.563Z,32.38
2018-10-17T19:45:17.315Z,30.48
2018-10-17T19:47:44.868Z,29.12
2018-10-17T19:50:12.697Z,35.78
2018-10-17T19:52:40.335Z,29.92
2018-10-17T19:55:08.277Z,30.02
2018-10-17T19:57:36.047Z,29.82
2018-10-17T20:00:04.216Z,30.68
2018-10-17T20:02:32.456Z,27.95
2018-10-17T20:05:00.226Z,26.15
2018-10-17T20:07:28.318Z,26.10
2018-10-17T20:09:56.061Z,26.42
2018-10-17T20:12:23.882Z,26.90
2018-10-17T20:14:51.609Z,26.90
2018-10-17T20:17:20.887Z,25.27
2018-10-17T20:19:48.844Z,26.42
2018-10-17T20:22:16.752Z,27.13
2018-10-17T20:24:44.554Z,26.05
2018-10-17T20:27:12.472Z,26.27
2018-10-17T20:29:40.344Z,27.10
2018-10-17T20:32:09.542Z,25.75
2018-10-17T20:34:38.434Z,26.97
2018-10-17T20:37:06.102Z,29.30
2018-10-17T20:39:33.762Z,32.20
2018-10-17T20:42:02.085Z,32.45
2018-10-17T20:44:30.033Z,30.65
2018-10-17T20:46:57.904Z,31.37
2018-10-17T20:49:25.829Z,30.62
2018-10-17T20:51:53.752Z,34.08
2018-10-17T20:54:22.643Z,34.88
2018-10-17T20:56:50.500Z,31.37
2018-10-17T20:59:18.685Z,32.50
2018-10-17T21:01:46.511Z,33.73
2018-10-17T21:04:14.541Z,34.90
2018-10-17T21:06:42.364Z,39.40
2018-10-17T21:09:12.192Z,36.45
2018-10-17T21:11:40.068Z,37.40
2018-10-17T21:14:07.892Z,39.23
2018-10-17T21:16:35.746Z,41.40
2018-10-17T21:19:03.626Z,43.33
2018-10-17T21:21:32.371Z,43.48
2018-10-17T21:24:00.575Z,42.35
2018-10-17T21:26:28.408Z,42.45
2018-10-17T21:28:56.262Z,44.20
2018-10-17T21:31:24.134Z,42.55
2018-10-17T21:46:54.800Z,45.90
2018-10-17T21:49:22.504Z,45.43
2018-10-17T21:51:59.702Z,47.00
2018-10-17T21:54:31.656Z,48.58
2018-10-17T21:56:59.280Z,47.13
2018-10-17T21:59:27.038Z,49.03
2018-10-17T22:01:55.302Z,51.33
2018-10-17T22:04:23.024Z,47.35
2018-10-17T22:06:50.904Z,49.75
2018-10-17T22:09:18.620Z,49.85
2018-10-17T22:11:46.371Z,53.05
2018-10-17T22:14:14.200Z,45.63
2018-10-17T22:16:47.016Z,50.52
2018-10-17T22:19:14.786Z,46.83
2018-10-17T22:21:42.584Z,48.50
2018-10-17T22:24:10.282Z,52.17
2018-10-17T22:26:38.039Z,51.18
2018-10-17T22:29:05.721Z,53.00
2018-10-17T22:31:33.391Z,50.92
2018-10-17T22:34:00.986Z,54.50
2018-10-17T22:36:28.612Z,52.67
2018-10-17T22:38:56.910Z,52.73
2018-10-17T22:41:24.764Z,51.88
2018-10-17T22:43:52.204Z,50.23
2018-10-17T22:46:20.032Z,55.65
2018-10-17T22:48:47.740Z,56.95
2018-10-17T22:51:15.430Z,58.30
2018-10-17T22:53:43.978Z,55.55
2018-10-17T22:56:11.794Z,53.65
2018-10-17T22:58:39.377Z,54.98
2018-10-17T23:01:07.158Z,52.13
2018-10-17T23:03:34.871Z,57.80
2018-10-17T23:06:02.597Z,59.25
2018-10-17T23:08:30.417Z,57.27
2018-10-17T23:10:58.183Z,60.65
2018-10-17T23:13:25.781Z,58.68
2018-10-17T23:15:53.461Z,59.48
2018-10-17T23:18:21.136Z,56.73
2018-10-17T23:20:48.831Z,61.90
2018-10-17T23:23:16.432Z,64.58
2018-10-17T23:25:44.163Z,59.33
2018-10-17T23:28:11.881Z,62.65
2018-10-17T23:30:39.578Z,61.40
2018-10-17T23:33:07.067Z,60.03
2018-10-17T23:35:34.727Z,61.95
2018-10-17T23:38:02.309Z,56.63
2018-10-17T23:40:29.746Z,63.17
2018-10-17T23:42:57.252Z,60.17
2018-10-17T23:45:24.802Z,59.83
2018-10-17T23:47:52.391Z,60.55
2018-10-17T23:50:19.978Z,61.40
2018-10-17T23:52:47.595Z,59.83
2018-10-17T23:55:15.192Z,62.60
2018-10-17T23:57:42.751Z,63.17
